sensor_id;sensor_type;location;lat;lon;timestamp;P1;durP1;ratioP1;P2;durP2;ratioP2
2029;SDS011;1020;48.854;8.830;2022-12-16T00:02:22;30.43;;;20.93;;
2029;SDS011;1020;48.854;8.830;2022-12-16T00:04:48;34.33;;;23.60;;
2029;SDS011;1020;48.854;8.830;2022-12-16T00:07:15;33.70;;;25.13;;
2029;SDS011;1020;48.854;8.830;2022-12-16T00:09:42;35.13;;;23.93;;
2029;SDS011;1020;48.854;8.830;2022-12-16T00:12:09;29.00;;;22.43;;
2029;SDS011;1020;48.854;8.830;2022-12-16T00:14:35;27.60;;;22.10;;
2029;SDS011;1020;48.854;8.830;2022-12-16T00:17:02;30.80;;;22.00;;
2029;SDS011;1020;48.854;8.830;2022-12-16T00:19:30;33.90;;;22.97;;
2029;SDS011;1020;48.854;8.830;2022-12-16T00:21:57;30.77;;;23.40;;
2029;SDS011;1020;48.854;8.830;2022-12-16T00:24:24;30.13;;;21.13;;
2029;SDS011;1020;48.854;8.830;2022-12-16T00:26:51;29.83;;;23.50;;
2029;SDS011;1020;48.854;8.830;2022-12-16T00:29:17;33.83;;;25.00;;
2029;SDS011;1020;48.854;8.830;2022-12-16T00:31:44;33.20;;;24.37;;
2029;SDS011;1020;48.854;8.830;2022-12-16T00:34:12;33.93;;;23.10;;
2029;SDS011;1020;48.854;8.830;2022-12-16T00:36:40;31.10;;;23.93;;
2029;SDS011;1020;48.854;8.830;2022-12-16T00:39:07;32.77;;;24.90;;
2029;SDS011;1020;48.854;8.830;2022-12-16T00:41:34;30.97;;;23.30;;
2029;SDS011;1020;48.854;8.830;2022-12-16T00:44:01;28.97;;;22.97;;
2029;SDS011;1020;48.854;8.830;2022-12-16T00:46:28;25.80;;;20.67;;
2029;SDS011;1020;48.854;8.830;2022-12-16T00:48:55;28.33;;;21.83;;
2029;SDS011;1020;48.854;8.830;2022-12-16T00:51:22;30.97;;;22.50;;
2029;SDS011;1020;48.854;8.830;2022-12-16T00:53:50;28.80;;;22.90;;
2029;SDS011;1020;48.854;8.830;2022-12-16T00:56:17;28.87;;;23.30;;
2029;SDS011;1020;48.854;8.830;2022-12-16T00:58:44;28.00;;;23.03;;
2029;SDS011;1020;48.854;8.830;2022-12-16T01:01:11;30.30;;;23.30;;
2029;SDS011;1020;48.854;8.830;2022-12-16T01:03:38;30.60;;;23.50;;
2029;SDS011;1020;48.854;8.830;2022-12-16T01:06:09;34.77;;;23.57;;
2029;SDS011;1020;48.854;8.830;2022-12-16T01:08:37;33.77;;;24.53;;
2029;SDS011;1020;48.854;8.830;2022-12-16T01:11:05;31.30;;;21.00;;
2029;SDS011;1020;48.854;8.830;2022-12-16T01:13:34;27.77;;;21.30;;
2029;SDS011;1020;48.854;8.830;2022-12-16T01:16:01;28.87;;;23.13;;
2029;SDS011;1020;48.854;8.830;2022-12-16T01:18:28;26.00;;;20.87;;
2029;SDS011;1020;48.854;8.830;2022-12-16T01:21:00;30.33;;;22.87;;
2029;SDS011;1020;48.854;8.830;2022-12-16T01:23:28;29.33;;;21.87;;
2029;SDS011;1020;48.854;8.830;2022-12-16T01:25:55;27.10;;;19.77;;
2029;SDS011;1020;48.854;8.830;2022-12-16T01:28:25;30.77;;;21.20;;
2029;SDS011;1020;48.854;8.830;2022-12-16T01:30:53;33.60;;;25.70;;
2029;SDS011;1020;48.854;8.830;2022-12-16T01:33:22;29.67;;;23.80;;
2029;SDS011;1020;48.854;8.830;2022-12-16T01:35:48;30.83;;;20.90;;
2029;SDS011;1020;48.854;8.830;2022-12-16T01:38:22;28.80;;;22.33;;
2029;SDS011;1020;48.854;8.830;2022-12-16T01:40:49;28.17;;;22.60;;
2029;SDS011;1020;48.854;8.830;2022-12-16T01:43:16;29.37;;;22.77;;
2029;SDS011;1020;48.854;8.830;2022-12-16T01:45:46;28.67;;;22.37;;
2029;SDS011;1020;48.854;8.830;2022-12-16T01:48:15;33.83;;;24.47;;
2029;SDS011;1020;48.854;8.830;2022-12-16T01:50:47;30.60;;;22.90;;
2029;SDS011;1020;48.854;8.830;2022-12-16T01:53:15;30.60;;;22.70;;
2029;SDS011;1020;48.854;8.830;2022-12-16T01:55:42;28.80;;;21.87;;
2029;SDS011;1020;48.854;8.830;2022-12-16T01:58:14;30.00;;;21.77;;
2029;SDS011;1020;48.854;8.830;2022-12-16T02:00:44;29.50;;;22.70;;
2029;SDS011;1020;48.854;8.830;2022-12-16T02:03:12;34.80;;;25.87;;
2029;SDS011;1020;48.854;8.830;2022-12-16T02:05:40;28.43;;;21.20;;
2029;SDS011;1020;48.854;8.830;2022-12-16T02:08:10;28.63;;;21.70;;
2029;SDS011;1020;48.854;8.830;2022-12-16T02:10:44;32.30;;;24.70;;
2029;SDS011;1020;48.854;8.830;2022-12-16T02:13:25;30.37;;;23.10;;
2029;SDS011;1020;48.854;8.830;2022-12-16T02:16:01;28.87;;;21.70;;
2029;SDS011;1020;48.854;8.830;2022-12-16T02:18:36;33.00;;;22.37;;
2029;SDS011;1020;48.854;8.830;2022-12-16T02:21:14;30.80;;;21.80;;
2029;SDS011;1020;48.854;8.830;2022-12-16T02:24:07;38.40;;;24.70;;
2029;SDS011;1020;48.854;8.830;2022-12-16T02:27:04;33.73;;;24.43;;
2029;SDS011;1020;48.854;8.830;2022-12-16T02:33:11;27.20;;;20.23;;
2029;SDS011;1020;48.854;8.830;2022-12-16T02:35:48;27.20;;;20.53;;
2029;SDS011;1020;48.854;8.830;2022-12-16T02:38:23;26.47;;;20.43;;
2029;SDS011;1020;48.854;8.830;2022-12-16T02:40:56;24.63;;;19.23;;
2029;SDS011;1020;48.854;8.830;2022-12-16T02:43:34;27.37;;;21.50;;
2029;SDS011;1020;48.854;8.830;2022-12-16T02:46:14;26.53;;;19.53;;
2029;SDS011;1020;48.854;8.830;2022-12-16T02:48:41;28.97;;;22.37;;
2029;SDS011;1020;48.854;8.830;2022-12-16T02:51:08;29.67;;;21.13;;
2029;SDS011;1020;48.854;8.830;2022-12-16T02:53:36;30.07;;;21.80;;
2029;SDS011;1020;48.854;8.830;2022-12-16T02:56:05;24.83;;;19.83;;
2029;SDS011;1020;48.854;8.830;2022-12-16T02:58:40;24.83;;;18.17;;
2029;SDS011;1020;48.854;8.830;2022-12-16T03:01:16;25.67;;;19.43;;
2029;SDS011;1020;48.854;8.830;2022-12-16T03:03:52;27.90;;;21.60;;
2029;SDS011;1020;48.854;8.830;2022-12-16T03:06:22;24.30;;;18.93;;
2029;SDS011;1020;48.854;8.830;2022-12-16T03:08:52;26.93;;;21.07;;
2029;SDS011;1020;48.854;8.830;2022-12-16T03:11:22;25.00;;;20.87;;
2029;SDS011;1020;48.854;8.830;2022-12-16T03:13:52;23.77;;;19.77;;
2029;SDS011;1020;48.854;8.830;2022-12-16T03:16:21;28.00;;;20.93;;
2029;SDS011;1020;48.854;8.830;2022-12-16T03:18:53;27.57;;;20.77;;
2029;SDS011;1020;48.854;8.830;2022-12-16T03:21:23;27.23;;;19.63;;
2029;SDS011;1020;48.854;8.830;2022-12-16T03:23:56;26.13;;;20.10;;
2029;SDS011;1020;48.854;8.830;2022-12-16T03:26:26;25.93;;;19.33;;
2029;SDS011;1020;48.854;8.830;2022-12-16T03:28:57;23.07;;;18.53;;
2029;SDS011;1020;48.854;8.830;2022-12-16T03:31:40;25.37;;;21.00;;
2029;SDS011;1020;48.854;8.830;2022-12-16T03:34:12;26.10;;;20.27;;
2029;SDS011;1020;48.854;8.830;2022-12-16T03:36:42;22.33;;;17.33;;
2029;SDS011;1020;48.854;8.830;2022-12-16T03:39:14;22.90;;;19.47;;
2029;SDS011;1020;48.854;8.830;2022-12-16T03:41:42;25.60;;;19.30;;
2029;SDS011;1020;48.854;8.830;2022-12-16T03:44:10;30.33;;;20.33;;
2029;SDS011;1020;48.854;8.830;2022-12-16T03:46:38;23.67;;;17.60;;
2029;SDS011;1020;48.854;8.830;2022-12-16T03:49:05;24.13;;;18.27;;
2029;SDS011;1020;48.854;8.830;2022-12-16T03:51:31;22.90;;;19.47;;
2029;SDS011;1020;48.854;8.830;2022-12-16T03:53:59;22.43;;;17.17;;
2029;SDS011;1020;48.854;8.830;2022-12-16T03:56:25;22.73;;;18.50;;
2029;SDS011;1020;48.854;8.830;2022-12-16T03:58:52;24.10;;;19.40;;
2029;SDS011;1020;48.854;8.830;2022-12-16T04:01:19;27.10;;;20.00;;
2029;SDS011;1020;48.854;8.830;2022-12-16T04:03:48;26.97;;;22.10;;
2029;SDS011;1020;48.854;8.830;2022-12-16T04:06:15;22.70;;;17.80;;
2029;SDS011;1020;48.854;8.830;2022-12-16T04:08:42;25.90;;;21.33;;
2029;SDS011;1020;48.854;8.830;2022-12-16T04:11:09;24.97;;;18.60;;
2029;SDS011;1020;48.854;8.830;2022-12-16T04:13:53;21.10;;;16.20;;
2029;SDS011;1020;48.854;8.830;2022-12-16T04:16:38;21.83;;;17.83;;
2029;SDS011;1020;48.854;8.830;2022-12-16T04:19:24;22.93;;;17.67;;
2029;SDS011;1020;48.854;8.830;2022-12-16T04:22:11;20.47;;;15.40;;
2029;SDS011;1020;48.854;8.830;2022-12-16T04:25:02;19.70;;;16.10;;
2029;SDS011;1020;48.854;8.830;2022-12-16T04:27:31;22.67;;;16.90;;
2029;SDS011;1020;48.854;8.830;2022-12-16T04:29:58;19.43;;;15.73;;
2029;SDS011;1020;48.854;8.830;2022-12-16T04:32:42;21.80;;;17.67;;
2029;SDS011;1020;48.854;8.830;2022-12-16T04:35:27;22.60;;;17.57;;
2029;SDS011;1020;48.854;8.830;2022-12-16T04:38:12;24.50;;;19.97;;
2029;SDS011;1020;48.854;8.830;2022-12-16T04:40:57;27.23;;;18.97;;
2029;SDS011;1020;48.854;8.830;2022-12-16T04:43:41;20.33;;;17.20;;
2029;SDS011;1020;48.854;8.830;2022-12-16T04:46:25;22.90;;;18.90;;
2029;SDS011;1020;48.854;8.830;2022-12-16T04:49:09;23.80;;;17.77;;
2029;SDS011;1020;48.854;8.830;2022-12-16T04:51:55;20.00;;;17.27;;
2029;SDS011;1020;48.854;8.830;2022-12-16T04:54:39;21.27;;;17.07;;
2029;SDS011;1020;48.854;8.830;2022-12-16T04:57:23;20.73;;;15.63;;
2029;SDS011;1020;48.854;8.830;2022-12-16T05:00:08;20.27;;;17.07;;
2029;SDS011;1020;48.854;8.830;2022-12-16T05:02:52;22.53;;;17.53;;
2029;SDS011;1020;48.854;8.830;2022-12-16T05:05:36;21.87;;;17.87;;
2029;SDS011;1020;48.854;8.830;2022-12-16T05:08:22;22.10;;;17.50;;
2029;SDS011;1020;48.854;8.830;2022-12-16T05:11:06;24.70;;;15.60;;
2029;SDS011;1020;48.854;8.830;2022-12-16T05:13:50;23.33;;;17.53;;
2029;SDS011;1020;48.854;8.830;2022-12-16T05:16:35;22.60;;;17.80;;
2029;SDS011;1020;48.854;8.830;2022-12-16T05:19:19;25.00;;;18.87;;
2029;SDS011;1020;48.854;8.830;2022-12-16T05:22:03;22.50;;;17.27;;
2029;SDS011;1020;48.854;8.830;2022-12-16T05:24:48;24.00;;;16.80;;
2029;SDS011;1020;48.854;8.830;2022-12-16T05:27:33;25.70;;;19.50;;
2029;SDS011;1020;48.854;8.830;2022-12-16T05:30:17;24.17;;;18.33;;
2029;SDS011;1020;48.854;8.830;2022-12-16T05:33:01;26.80;;;19.70;;
2029;SDS011;1020;48.854;8.830;2022-12-16T05:35:45;27.00;;;19.47;;
2029;SDS011;1020;48.854;8.830;2022-12-16T05:38:29;23.20;;;17.70;;
2029;SDS011;1020;48.854;8.830;2022-12-16T05:41:15;22.17;;;18.13;;
2029;SDS011;1020;48.854;8.830;2022-12-16T05:43:59;23.77;;;18.17;;
2029;SDS011;1020;48.854;8.830;2022-12-16T05:46:43;32.83;;;19.70;;
2029;SDS011;1020;48.854;8.830;2022-12-16T05:49:27;25.77;;;20.47;;
2029;SDS011;1020;48.854;8.830;2022-12-16T05:52:12;25.97;;;20.40;;
2029;SDS011;1020;48.854;8.830;2022-12-16T05:54:56;27.63;;;20.93;;
2029;SDS011;1020;48.854;8.830;2022-12-16T05:57:41;26.60;;;20.47;;
2029;SDS011;1020;48.854;8.830;2022-12-16T06:00:25;26.47;;;21.13;;
2029;SDS011;1020;48.854;8.830;2022-12-16T06:03:10;32.20;;;21.40;;
2029;SDS011;1020;48.854;8.830;2022-12-16T06:05:54;31.67;;;22.77;;
2029;SDS011;1020;48.854;8.830;2022-12-16T06:08:34;32.03;;;24.50;;
2029;SDS011;1020;48.854;8.830;2022-12-16T06:11:19;35.57;;;23.23;;
2029;SDS011;1020;48.854;8.830;2022-12-16T06:14:04;31.20;;;24.03;;
2029;SDS011;1020;48.854;8.830;2022-12-16T06:16:49;33.20;;;24.80;;
2029;SDS011;1020;48.854;8.830;2022-12-16T06:19:33;28.97;;;22.47;;
2029;SDS011;1020;48.854;8.830;2022-12-16T06:22:17;33.43;;;23.40;;
2029;SDS011;1020;48.854;8.830;2022-12-16T06:25:01;36.33;;;22.90;;
2029;SDS011;1020;48.854;8.830;2022-12-16T06:27:48;32.77;;;24.10;;
2029;SDS011;1020;48.854;8.830;2022-12-16T06:30:35;36.10;;;23.40;;
2029;SDS011;1020;48.854;8.830;2022-12-16T06:33:19;28.17;;;22.23;;
2029;SDS011;1020;48.854;8.830;2022-12-16T06:36:04;34.57;;;23.90;;
2029;SDS011;1020;48.854;8.830;2022-12-16T06:38:49;33.63;;;24.57;;
2029;SDS011;1020;48.854;8.830;2022-12-16T06:41:33;32.37;;;22.70;;
2029;SDS011;1020;48.854;8.830;2022-12-16T06:44:17;32.17;;;23.37;;
2029;SDS011;1020;48.854;8.830;2022-12-16T06:47:03;28.83;;;22.30;;
2029;SDS011;1020;48.854;8.830;2022-12-16T06:49:47;32.27;;;21.50;;
2029;SDS011;1020;48.854;8.830;2022-12-16T06:52:31;33.10;;;23.67;;
2029;SDS011;1020;48.854;8.830;2022-12-16T06:55:16;27.27;;;20.50;;
2029;SDS011;1020;48.854;8.830;2022-12-16T06:58:00;32.50;;;22.97;;
2029;SDS011;1020;48.854;8.830;2022-12-16T07:00:44;30.13;;;21.60;;
2029;SDS011;1020;48.854;8.830;2022-12-16T07:03:29;33.10;;;23.43;;
2029;SDS011;1020;48.854;8.830;2022-12-16T07:06:13;29.20;;;21.83;;
2029;SDS011;1020;48.854;8.830;2022-12-16T07:08:57;28.10;;;20.47;;
2029;SDS011;1020;48.854;8.830;2022-12-16T07:11:41;30.30;;;22.27;;
2029;SDS011;1020;48.854;8.830;2022-12-16T07:14:26;32.37;;;21.00;;
2029;SDS011;1020;48.854;8.830;2022-12-16T07:17:10;30.63;;;21.70;;
2029;SDS011;1020;48.854;8.830;2022-12-16T07:20:04;31.00;;;21.00;;
2029;SDS011;1020;48.854;8.830;2022-12-16T07:22:49;29.27;;;21.07;;
2029;SDS011;1020;48.854;8.830;2022-12-16T07:25:34;31.83;;;21.17;;
2029;SDS011;1020;48.854;8.830;2022-12-16T07:28:18;30.23;;;22.20;;
2029;SDS011;1020;48.854;8.830;2022-12-16T07:31:04;29.70;;;19.70;;
2029;SDS011;1020;48.854;8.830;2022-12-16T07:33:48;32.37;;;21.90;;
2029;SDS011;1020;48.854;8.830;2022-12-16T07:36:33;28.37;;;19.80;;
2029;SDS011;1020;48.854;8.830;2022-12-16T07:39:17;28.63;;;21.10;;
2029;SDS011;1020;48.854;8.830;2022-12-16T07:42:04;26.30;;;19.23;;
2029;SDS011;1020;48.854;8.830;2022-12-16T07:44:48;28.53;;;20.37;;
2029;SDS011;1020;48.854;8.830;2022-12-16T07:47:32;33.40;;;20.70;;
2029;SDS011;1020;48.854;8.830;2022-12-16T07:50:16;27.83;;;20.60;;
2029;SDS011;1020;48.854;8.830;2022-12-16T07:53:04;26.33;;;19.87;;
2029;SDS011;1020;48.854;8.830;2022-12-16T07:55:48;29.53;;;20.97;;
2029;SDS011;1020;48.854;8.830;2022-12-16T07:58:34;26.70;;;19.77;;
2029;SDS011;1020;48.854;8.830;2022-12-16T08:01:18;29.60;;;20.77;;
2029;SDS011;1020;48.854;8.830;2022-12-16T08:04:02;28.27;;;20.37;;
2029;SDS011;1020;48.854;8.830;2022-12-16T08:06:46;27.00;;;18.50;;
2029;SDS011;1020;48.854;8.830;2022-12-16T08:09:32;24.70;;;17.87;;
2029;SDS011;1020;48.854;8.830;2022-12-16T08:12:16;24.10;;;17.30;;
2029;SDS011;1020;48.854;8.830;2022-12-16T08:15:00;30.37;;;20.87;;
2029;SDS011;1020;48.854;8.830;2022-12-16T08:17:47;25.13;;;18.67;;
2029;SDS011;1020;48.854;8.830;2022-12-16T08:20:32;25.00;;;17.33;;
2029;SDS011;1020;48.854;8.830;2022-12-16T08:23:16;28.90;;;19.10;;
2029;SDS011;1020;48.854;8.830;2022-12-16T08:26:02;26.30;;;18.97;;
2029;SDS011;1020;48.854;8.830;2022-12-16T08:28:54;23.97;;;16.63;;
2029;SDS011;1020;48.854;8.830;2022-12-16T08:31:53;26.70;;;18.37;;
2029;SDS011;1020;48.854;8.830;2022-12-16T08:34:38;26.57;;;19.80;;
2029;SDS011;1020;48.854;8.830;2022-12-16T08:37:22;24.07;;;18.63;;
2029;SDS011;1020;48.854;8.830;2022-12-16T08:40:06;32.20;;;19.40;;
2029;SDS011;1020;48.854;8.830;2022-12-16T08:42:52;26.17;;;18.57;;
2029;SDS011;1020;48.854;8.830;2022-12-16T08:45:38;24.93;;;19.83;;
2029;SDS011;1020;48.854;8.830;2022-12-16T08:48:23;29.87;;;21.20;;
2029;SDS011;1020;48.854;8.830;2022-12-16T08:51:07;26.20;;;18.67;;
2029;SDS011;1020;48.854;8.830;2022-12-16T08:53:51;25.40;;;18.70;;
2029;SDS011;1020;48.854;8.830;2022-12-16T08:56:35;26.03;;;19.93;;
2029;SDS011;1020;48.854;8.830;2022-12-16T08:59:20;30.50;;;19.93;;
2029;SDS011;1020;48.854;8.830;2022-12-16T09:02:05;25.90;;;18.57;;
2029;SDS011;1020;48.854;8.830;2022-12-16T09:04:49;28.57;;;16.17;;
2029;SDS011;1020;48.854;8.830;2022-12-16T09:07:33;23.93;;;17.53;;
2029;SDS011;1020;48.854;8.830;2022-12-16T09:10:17;24.30;;;16.60;;
2029;SDS011;1020;48.854;8.830;2022-12-16T09:13:05;25.70;;;18.83;;
2029;SDS011;1020;48.854;8.830;2022-12-16T09:15:52;24.70;;;17.47;;
2029;SDS011;1020;48.854;8.830;2022-12-16T09:18:36;28.00;;;19.17;;
2029;SDS011;1020;48.854;8.830;2022-12-16T09:21:20;24.03;;;17.97;;
2029;SDS011;1020;48.854;8.830;2022-12-16T09:24:05;24.30;;;18.87;;
2029;SDS011;1020;48.854;8.830;2022-12-16T09:26:49;26.63;;;18.37;;
2029;SDS011;1020;48.854;8.830;2022-12-16T09:29:34;24.13;;;17.10;;
2029;SDS011;1020;48.854;8.830;2022-12-16T09:32:19;21.00;;;17.10;;
2029;SDS011;1020;48.854;8.830;2022-12-16T09:35:03;26.27;;;16.80;;
2029;SDS011;1020;48.854;8.830;2022-12-16T09:37:48;24.17;;;19.03;;
2029;SDS011;1020;48.854;8.830;2022-12-16T09:40:32;26.47;;;18.00;;
2029;SDS011;1020;48.854;8.830;2022-12-16T09:43:24;24.67;;;16.57;;
2029;SDS011;1020;48.854;8.830;2022-12-16T09:46:21;25.93;;;18.83;;
2029;SDS011;1020;48.854;8.830;2022-12-16T09:49:16;19.10;;;15.00;;
2029;SDS011;1020;48.854;8.830;2022-12-16T09:52:11;21.53;;;15.00;;
2029;SDS011;1020;48.854;8.830;2022-12-16T09:54:59;22.10;;;16.20;;
2029;SDS011;1020;48.854;8.830;2022-12-16T09:57:46;20.37;;;14.77;;
2029;SDS011;1020;48.854;8.830;2022-12-16T10:00:31;17.07;;;13.67;;
2029;SDS011;1020;48.854;8.830;2022-12-16T10:03:18;23.70;;;20.47;;
2029;SDS011;1020;48.854;8.830;2022-12-16T10:06:08;16.57;;;13.30;;
2029;SDS011;1020;48.854;8.830;2022-12-16T10:09:05;19.00;;;14.00;;
2029;SDS011;1020;48.854;8.830;2022-12-16T10:12:01;18.67;;;13.97;;
2029;SDS011;1020;48.854;8.830;2022-12-16T10:14:54;18.67;;;14.10;;
2029;SDS011;1020;48.854;8.830;2022-12-16T10:17:47;19.17;;;13.10;;
2029;SDS011;1020;48.854;8.830;2022-12-16T10:20:33;16.07;;;13.70;;
2029;SDS011;1020;48.854;8.830;2022-12-16T10:23:28;16.37;;;13.30;;
2029;SDS011;1020;48.854;8.830;2022-12-16T10:26:19;16.37;;;13.57;;
2029;SDS011;1020;48.854;8.830;2022-12-16T10:29:11;18.90;;;13.07;;
2029;SDS011;1020;48.854;8.830;2022-12-16T10:32:01;17.93;;;14.33;;
2029;SDS011;1020;48.854;8.830;2022-12-16T10:34:49;22.60;;;14.47;;
2029;SDS011;1020;48.854;8.830;2022-12-16T10:37:33;18.10;;;13.00;;
2029;SDS011;1020;48.854;8.830;2022-12-16T10:40:22;19.20;;;14.37;;
2029;SDS011;1020;48.854;8.830;2022-12-16T10:43:12;19.00;;;13.00;;
2029;SDS011;1020;48.854;8.830;2022-12-16T10:45:59;16.50;;;13.10;;
2029;SDS011;1020;48.854;8.830;2022-12-16T10:48:49;17.70;;;13.80;;
2029;SDS011;1020;48.854;8.830;2022-12-16T10:51:34;20.43;;;13.60;;
2029;SDS011;1020;48.854;8.830;2022-12-16T10:54:22;17.20;;;12.93;;
2029;SDS011;1020;48.854;8.830;2022-12-16T10:57:15;16.50;;;12.77;;
2029;SDS011;1020;48.854;8.830;2022-12-16T11:00:10;15.43;;;11.33;;
2029;SDS011;1020;48.854;8.830;2022-12-16T11:03:01;15.03;;;12.90;;
2029;SDS011;1020;48.854;8.830;2022-12-16T11:06:00;17.57;;;11.40;;
2029;SDS011;1020;48.854;8.830;2022-12-16T11:08:45;16.53;;;12.30;;
2029;SDS011;1020;48.854;8.830;2022-12-16T11:11:29;18.60;;;12.57;;
2029;SDS011;1020;48.854;8.830;2022-12-16T11:14:17;17.60;;;12.30;;
2029;SDS011;1020;48.854;8.830;2022-12-16T11:17:10;16.50;;;13.70;;
2029;SDS011;1020;48.854;8.830;2022-12-16T11:26:08;15.33;;;11.10;;
2029;SDS011;1020;48.854;8.830;2022-12-16T11:29:01;16.53;;;10.97;;
2029;SDS011;1020;48.854;8.830;2022-12-16T11:31:55;18.83;;;13.67;;
2029;SDS011;1020;48.854;8.830;2022-12-16T11:34:43;14.20;;;12.23;;
2029;SDS011;1020;48.854;8.830;2022-12-16T11:37:32;13.20;;;10.70;;
2029;SDS011;1020;48.854;8.830;2022-12-16T11:40:17;13.70;;;11.17;;
2029;SDS011;1020;48.854;8.830;2022-12-16T11:43:04;14.03;;;12.17;;
2029;SDS011;1020;48.854;8.830;2022-12-16T11:45:48;15.00;;;12.43;;
2029;SDS011;1020;48.854;8.830;2022-12-16T11:48:37;15.37;;;11.90;;
2029;SDS011;1020;48.854;8.830;2022-12-16T11:51:26;14.37;;;10.60;;
2029;SDS011;1020;48.854;8.830;2022-12-16T11:54:14;12.27;;;10.00;;
2029;SDS011;1020;48.854;8.830;2022-12-16T11:57:03;12.43;;;9.83;;
2029;SDS011;1020;48.854;8.830;2022-12-16T11:59:59;10.87;;;8.67;;
2029;SDS011;1020;48.854;8.830;2022-12-16T12:02:46;11.97;;;9.67;;
2029;SDS011;1020;48.854;8.830;2022-12-16T12:05:35;10.60;;;9.50;;
2029;SDS011;1020;48.854;8.830;2022-12-16T12:08:24;10.80;;;9.07;;
2029;SDS011;1020;48.854;8.830;2022-12-16T12:11:18;11.27;;;9.43;;
2029;SDS011;1020;48.854;8.830;2022-12-16T12:14:10;17.03;;;11.23;;
2029;SDS011;1020;48.854;8.830;2022-12-16T12:17:03;14.27;;;11.07;;
2029;SDS011;1020;48.854;8.830;2022-12-16T12:20:01;11.50;;;9.87;;
2029;SDS011;1020;48.854;8.830;2022-12-16T12:23:03;12.77;;;10.40;;
2029;SDS011;1020;48.854;8.830;2022-12-16T12:25:51;12.13;;;9.80;;
2029;SDS011;1020;48.854;8.830;2022-12-16T12:28:46;13.20;;;10.10;;
2029;SDS011;1020;48.854;8.830;2022-12-16T12:31:42;15.23;;;11.33;;
2029;SDS011;1020;48.854;8.830;2022-12-16T12:34:34;16.10;;;10.60;;
2029;SDS011;1020;48.854;8.830;2022-12-16T12:37:26;12.57;;;10.53;;
2029;SDS011;1020;48.854;8.830;2022-12-16T12:40:18;10.67;;;9.57;;
2029;SDS011;1020;48.854;8.830;2022-12-16T12:43:17;10.20;;;8.80;;
2029;SDS011;1020;48.854;8.830;2022-12-16T12:46:13;11.00;;;8.67;;
2029;SDS011;1020;48.854;8.830;2022-12-16T12:49:07;9.53;;;8.53;;
2029;SDS011;1020;48.854;8.830;2022-12-16T12:52:00;10.40;;;8.43;;
2029;SDS011;1020;48.854;8.830;2022-12-16T12:54:52;9.40;;;8.50;;
2029;SDS011;1020;48.854;8.830;2022-12-16T12:57:43;10.80;;;9.20;;
2029;SDS011;1020;48.854;8.830;2022-12-16T13:00:33;9.30;;;8.13;;
2029;SDS011;1020;48.854;8.830;2022-12-16T13:03:24;10.33;;;9.33;;
2029;SDS011;1020;48.854;8.830;2022-12-16T13:06:15;12.33;;;9.63;;
2029;SDS011;1020;48.854;8.830;2022-12-16T13:09:01;12.83;;;9.47;;
2029;SDS011;1020;48.854;8.830;2022-12-16T13:15:09;12.33;;;9.73;;
2029;SDS011;1020;48.854;8.830;2022-12-16T13:24:34;16.13;;;10.60;;
2029;SDS011;1020;48.854;8.830;2022-12-16T13:27:30;14.03;;;11.30;;
2029;SDS011;1020;48.854;8.830;2022-12-16T13:30:31;17.50;;;14.80;;
2029;SDS011;1020;48.854;8.830;2022-12-16T13:33:23;19.40;;;15.13;;
2029;SDS011;1020;48.854;8.830;2022-12-16T13:36:10;13.53;;;11.10;;
2029;SDS011;1020;48.854;8.830;2022-12-16T13:38:56;10.93;;;9.17;;
2029;SDS011;1020;48.854;8.830;2022-12-16T13:41:50;12.00;;;9.20;;
2029;SDS011;1020;48.854;8.830;2022-12-16T13:44:53;10.60;;;9.37;;
2029;SDS011;1020;48.854;8.830;2022-12-16T13:51:07;10.97;;;9.67;;
2029;SDS011;1020;48.854;8.830;2022-12-16T13:53:51;12.73;;;10.13;;
2029;SDS011;1020;48.854;8.830;2022-12-16T13:56:38;16.60;;;10.97;;
2029;SDS011;1020;48.854;8.830;2022-12-16T13:59:25;23.67;;;14.97;;
2029;SDS011;1020;48.854;8.830;2022-12-16T14:02:15;12.00;;;9.33;;
2029;SDS011;1020;48.854;8.830;2022-12-16T14:05:13;11.57;;;10.33;;
2029;SDS011;1020;48.854;8.830;2022-12-16T14:08:00;11.60;;;10.37;;
2029;SDS011;1020;48.854;8.830;2022-12-16T14:10:45;12.33;;;9.93;;
2029;SDS011;1020;48.854;8.830;2022-12-16T14:13:39;11.03;;;9.70;;
2029;SDS011;1020;48.854;8.830;2022-12-16T14:16:24;11.63;;;9.40;;
2029;SDS011;1020;48.854;8.830;2022-12-16T14:19:20;11.77;;;9.67;;
2029;SDS011;1020;48.854;8.830;2022-12-16T14:22:16;10.50;;;9.30;;
2029;SDS011;1020;48.854;8.830;2022-12-16T14:25:12;10.73;;;9.63;;
2029;SDS011;1020;48.854;8.830;2022-12-16T14:27:58;13.33;;;9.67;;
2029;SDS011;1020;48.854;8.830;2022-12-16T14:31:01;11.60;;;8.80;;
2029;SDS011;1020;48.854;8.830;2022-12-16T14:33:50;12.83;;;9.50;;
2029;SDS011;1020;48.854;8.830;2022-12-16T14:36:38;10.70;;;9.60;;
2029;SDS011;1020;48.854;8.830;2022-12-16T14:39:26;10.60;;;9.50;;
2029;SDS011;1020;48.854;8.830;2022-12-16T14:42:14;12.20;;;9.90;;
2029;SDS011;1020;48.854;8.830;2022-12-16T14:45:02;11.63;;;9.20;;
2029;SDS011;1020;48.854;8.830;2022-12-16T14:47:47;11.83;;;9.23;;
2029;SDS011;1020;48.854;8.830;2022-12-16T14:50:31;11.80;;;10.13;;
2029;SDS011;1020;48.854;8.830;2022-12-16T14:53:16;13.07;;;10.40;;
2029;SDS011;1020;48.854;8.830;2022-12-16T14:59:24;11.50;;;9.80;;
2029;SDS011;1020;48.854;8.830;2022-12-16T15:02:11;11.40;;;10.30;;
2029;SDS011;1020;48.854;8.830;2022-12-16T15:05:01;10.30;;;9.20;;
2029;SDS011;1020;48.854;8.830;2022-12-16T15:07:45;11.17;;;10.00;;
2029;SDS011;1020;48.854;8.830;2022-12-16T15:10:30;10.40;;;9.30;;
2029;SDS011;1020;48.854;8.830;2022-12-16T15:13:17;11.20;;;9.70;;
2029;SDS011;1020;48.854;8.830;2022-12-16T15:16:02;10.77;;;9.67;;
2029;SDS011;1020;48.854;8.830;2022-12-16T15:18:49;15.27;;;10.93;;
2029;SDS011;1020;48.854;8.830;2022-12-16T15:21:41;14.50;;;9.70;;
2029;SDS011;1020;48.854;8.830;2022-12-16T15:24:25;12.20;;;10.23;;
2029;SDS011;1020;48.854;8.830;2022-12-16T15:27:20;10.50;;;9.13;;
2029;SDS011;1020;48.854;8.830;2022-12-16T15:33:17;11.47;;;9.37;;
2029;SDS011;1020;48.854;8.830;2022-12-16T15:36:04;12.60;;;9.97;;
2029;SDS011;1020;48.854;8.830;2022-12-16T15:38:55;13.00;;;10.90;;
2029;SDS011;1020;48.854;8.830;2022-12-16T15:41:40;12.60;;;11.23;;
2029;SDS011;1020;48.854;8.830;2022-12-16T15:44:31;13.33;;;10.83;;
2029;SDS011;1020;48.854;8.830;2022-12-16T15:47:20;13.67;;;11.13;;
2029;SDS011;1020;48.854;8.830;2022-12-16T15:50:12;12.20;;;9.57;;
2029;SDS011;1020;48.854;8.830;2022-12-16T15:53:12;12.37;;;10.87;;
2029;SDS011;1020;48.854;8.830;2022-12-16T15:55:57;14.30;;;12.77;;
2029;SDS011;1020;48.854;8.830;2022-12-16T15:58:42;14.30;;;12.13;;
2029;SDS011;1020;48.854;8.830;2022-12-16T16:01:26;18.10;;;15.00;;
2029;SDS011;1020;48.854;8.830;2022-12-16T16:04:16;49.83;;;37.27;;
2029;SDS011;1020;48.854;8.830;2022-12-16T16:07:03;22.00;;;19.60;;
2029;SDS011;1020;48.854;8.830;2022-12-16T16:10:02;21.40;;;17.40;;
2029;SDS011;1020;48.854;8.830;2022-12-16T16:12:51;20.10;;;16.37;;
2029;SDS011;1020;48.854;8.830;2022-12-16T16:15:35;18.60;;;15.57;;
2029;SDS011;1020;48.854;8.830;2022-12-16T16:18:19;18.00;;;14.83;;
2029;SDS011;1020;48.854;8.830;2022-12-16T16:21:05;22.37;;;18.73;;
2029;SDS011;1020;48.854;8.830;2022-12-16T16:23:49;19.60;;;16.43;;
2029;SDS011;1020;48.854;8.830;2022-12-16T16:26:30;19.43;;;16.83;;
2029;SDS011;1020;48.854;8.830;2022-12-16T16:29:14;20.70;;;17.33;;
2029;SDS011;1020;48.854;8.830;2022-12-16T16:32:07;21.70;;;16.97;;
2029;SDS011;1020;48.854;8.830;2022-12-16T16:34:52;19.23;;;16.57;;
2029;SDS011;1020;48.854;8.830;2022-12-16T16:37:38;21.67;;;17.67;;
2029;SDS011;1020;48.854;8.830;2022-12-16T16:40:24;18.40;;;15.80;;
2029;SDS011;1020;48.854;8.830;2022-12-16T16:43:26;23.63;;;17.30;;
2029;SDS011;1020;48.854;8.830;2022-12-16T16:46:15;19.43;;;14.57;;
2029;SDS011;1020;48.854;8.830;2022-12-16T16:49:11;20.57;;;17.77;;
2029;SDS011;1020;48.854;8.830;2022-12-16T16:52:00;24.57;;;16.87;;
2029;SDS011;1020;48.854;8.830;2022-12-16T16:54:46;21.27;;;16.80;;